sensor_id;sensor_type;location;lat;lon;timestamp;P1;durP1;ratioP1;P2;durP2;ratioP2
72404;SDS011;60395;52.020;113.548;2023-02-14T00:02:48;15.82;;;4.65;;
72404;SDS011;60395;52.020;113.548;2023-02-14T00:05:52;5.22;;;3.20;;
72404;SDS011;60395;52.020;113.548;2023-02-14T00:08:55;10.80;;;4.63;;
72404;SDS011;60395;52.020;113.548;2023-02-14T00:11:58;16.85;;;5.55;;
72404;SDS011;60395;52.020;113.548;2023-02-14T00:15:02;17.40;;;5.07;;
72404;SDS011;60395;52.020;113.548;2023-02-14T00:18:24;19.95;;;5.88;;
72404;SDS011;60395;52.020;113.548;2023-02-14T00:21:50;14.68;;;4.82;;
72404;SDS011;60395;52.020;113.548;2023-02-14T00:24:53;9.95;;;5.82;;
72404;SDS011;60395;52.020;113.548;2023-02-14T00:27:57;11.93;;;4.60;;
72404;SDS011;60395;52.020;113.548;2023-02-14T00:31:02;10.02;;;4.32;;
72404;SDS011;60395;52.020;113.548;2023-02-14T00:34:05;13.90;;;5.78;;
72404;SDS011;60395;52.020;113.548;2023-02-14T00:37:09;10.38;;;4.53;;
72404;SDS011;60395;52.020;113.548;2023-02-14T00:40:13;7.30;;;3.63;;
72404;SDS011;60395;52.020;113.548;2023-02-14T00:43:17;18.70;;;5.60;;
72404;SDS011;60395;52.020;113.548;2023-02-14T00:46:20;10.97;;;5.40;;
72404;SDS011;60395;52.020;113.548;2023-02-14T00:49:24;14.10;;;4.72;;
72404;SDS011;60395;52.020;113.548;2023-02-14T00:52:28;16.35;;;6.45;;
72404;SDS011;60395;52.020;113.548;2023-02-14T00:55:32;40.95;;;11.25;;
72404;SDS011;60395;52.020;113.548;2023-02-14T00:58:36;65.60;;;21.38;;
72404;SDS011;60395;52.020;113.548;2023-02-14T01:01:39;99.50;;;24.73;;
72404;SDS011;60395;52.020;113.548;2023-02-14T01:04:43;71.13;;;24.73;;
72404;SDS011;60395;52.020;113.548;2023-02-14T01:07:47;97.68;;;28.10;;
72404;SDS011;60395;52.020;113.548;2023-02-14T01:10:50;76.67;;;23.53;;
72404;SDS011;60395;52.020;113.548;2023-02-14T01:13:55;68.35;;;24.50;;
72404;SDS011;60395;52.020;113.548;2023-02-14T01:16:59;50.67;;;21.50;;
72404;SDS011;60395;52.020;113.548;2023-02-14T01:20:04;66.65;;;23.55;;
72404;SDS011;60395;52.020;113.548;2023-02-14T01:23:08;68.10;;;22.65;;
72404;SDS011;60395;52.020;113.548;2023-02-14T01:26:12;59.92;;;23.20;;
72404;SDS011;60395;52.020;113.548;2023-02-14T01:29:16;71.15;;;23.52;;
72404;SDS011;60395;52.020;113.548;2023-02-14T01:32:19;94.53;;;25.03;;
72404;SDS011;60395;52.020;113.548;2023-02-14T01:35:24;61.67;;;22.55;;
72404;SDS011;60395;52.020;113.548;2023-02-14T01:38:27;71.68;;;24.90;;
72404;SDS011;60395;52.020;113.548;2023-02-14T01:41:32;69.22;;;23.10;;
72404;SDS011;60395;52.020;113.548;2023-02-14T01:47:40;118.03;;;36.08;;
72404;SDS011;60395;52.020;113.548;2023-02-14T01:50:46;101.50;;;30.58;;
72404;SDS011;60395;52.020;113.548;2023-02-14T01:53:55;119.55;;;39.72;;
72404;SDS011;60395;52.020;113.548;2023-02-14T01:57:00;119.78;;;38.28;;
72404;SDS011;60395;52.020;113.548;2023-02-14T02:00:08;97.60;;;32.88;;
72404;SDS011;60395;52.020;113.548;2023-02-14T02:03:37;244.43;;;81.03;;
72404;SDS011;60395;52.020;113.548;2023-02-14T02:09:57;112.80;;;32.90;;
72404;SDS011;60395;52.020;113.548;2023-02-14T02:13:05;109.00;;;30.52;;
72404;SDS011;60395;52.020;113.548;2023-02-14T02:34:18;118.95;;;35.08;;
72404;SDS011;60395;52.020;113.548;2023-02-14T02:37:55;103.65;;;34.15;;
72404;SDS011;60395;52.020;113.548;2023-02-14T02:41:35;122.22;;;39.55;;
72404;SDS011;60395;52.020;113.548;2023-02-14T02:51:43;149.82;;;45.85;;
72404;SDS011;60395;52.020;113.548;2023-02-14T02:59:07;135.30;;;40.30;;
72404;SDS011;60395;52.020;113.548;2023-02-14T03:02:29;143.35;;;40.90;;
72404;SDS011;60395;52.020;113.548;2023-02-14T03:05:56;122.75;;;38.90;;
72404;SDS011;60395;52.020;113.548;2023-02-14T03:15:45;147.25;;;40.75;;
72404;SDS011;60395;52.020;113.548;2023-02-14T03:19:24;127.65;;;38.20;;
72404;SDS011;60395;52.020;113.548;2023-02-14T03:29:30;119.25;;;34.92;;
72404;SDS011;60395;52.020;113.548;2023-02-14T03:36:05;131.90;;;39.60;;
72404;SDS011;60395;52.020;113.548;2023-02-14T03:39:23;122.53;;;34.38;;
72404;SDS011;60395;52.020;113.548;2023-02-14T03:42:39;113.20;;;32.95;;
72404;SDS011;60395;52.020;113.548;2023-02-14T03:49:27;126.25;;;32.47;;
72404;SDS011;60395;52.020;113.548;2023-02-14T03:52:33;118.18;;;33.10;;
72404;SDS011;60395;52.020;113.548;2023-02-14T03:59:17;119.10;;;35.42;;
72404;SDS011;60395;52.020;113.548;2023-02-14T04:02:25;110.82;;;32.85;;
72404;SDS011;60395;52.020;113.548;2023-02-14T04:05:38;109.72;;;34.03;;
72404;SDS011;60395;52.020;113.548;2023-02-14T04:08:46;112.78;;;33.15;;
72404;SDS011;60395;52.020;113.548;2023-02-14T04:11:49;121.30;;;36.10;;
72404;SDS011;60395;52.020;113.548;2023-02-14T04:14:52;111.72;;;33.85;;
72404;SDS011;60395;52.020;113.548;2023-02-14T04:17:55;140.20;;;41.70;;
72404;SDS011;60395;52.020;113.548;2023-02-14T04:21:17;138.48;;;38.75;;
72404;SDS011;60395;52.020;113.548;2023-02-14T04:24:20;138.35;;;38.90;;
72404;SDS011;60395;52.020;113.548;2023-02-14T04:27:24;136.68;;;40.25;;
72404;SDS011;60395;52.020;113.548;2023-02-14T04:30:27;374.55;;;113.78;;
72404;SDS011;60395;52.020;113.548;2023-02-14T04:33:31;144.95;;;41.90;;
72404;SDS011;60395;52.020;113.548;2023-02-14T04:36:35;108.10;;;39.70;;
72404;SDS011;60395;52.020;113.548;2023-02-14T04:39:38;117.50;;;37.97;;
72404;SDS011;60395;52.020;113.548;2023-02-14T04:42:42;117.57;;;38.25;;
72404;SDS011;60395;52.020;113.548;2023-02-14T04:45:46;113.43;;;35.88;;
72404;SDS011;60395;52.020;113.548;2023-02-14T04:48:50;112.60;;;33.25;;
72404;SDS011;60395;52.020;113.548;2023-02-14T04:51:53;139.88;;;36.13;;
72404;SDS011;60395;52.020;113.548;2023-02-14T04:54:56;123.25;;;31.98;;
72404;SDS011;60395;52.020;113.548;2023-02-14T04:58:00;113.85;;;32.13;;
72404;SDS011;60395;52.020;113.548;2023-02-14T05:01:03;93.20;;;31.02;;
72404;SDS011;60395;52.020;113.548;2023-02-14T05:04:06;92.07;;;30.52;;
72404;SDS011;60395;52.020;113.548;2023-02-14T05:07:10;78.95;;;26.58;;
72404;SDS011;60395;52.020;113.548;2023-02-14T05:10:13;88.25;;;26.92;;
72404;SDS011;60395;52.020;113.548;2023-02-14T05:13:16;87.88;;;24.58;;
72404;SDS011;60395;52.020;113.548;2023-02-14T05:16:20;72.63;;;24.05;;
72404;SDS011;60395;52.020;113.548;2023-02-14T05:19:23;89.60;;;26.65;;
72404;SDS011;60395;52.020;113.548;2023-02-14T05:22:27;104.57;;;31.85;;
72404;SDS011;60395;52.020;113.548;2023-02-14T05:25:30;86.88;;;29.45;;
72404;SDS011;60395;52.020;113.548;2023-02-14T05:28:34;75.50;;;24.13;;
72404;SDS011;60395;52.020;113.548;2023-02-14T05:31:37;66.57;;;21.02;;
72404;SDS011;60395;52.020;113.548;2023-02-14T05:34:40;45.45;;;15.38;;
72404;SDS011;60395;52.020;113.548;2023-02-14T05:37:44;73.75;;;23.90;;
72404;SDS011;60395;52.020;113.548;2023-02-14T05:40:47;82.30;;;24.92;;
72404;SDS011;60395;52.020;113.548;2023-02-14T05:43:50;27.00;;;8.98;;
72404;SDS011;60395;52.020;113.548;2023-02-14T05:46:53;46.45;;;15.93;;
72404;SDS011;60395;52.020;113.548;2023-02-14T05:49:57;53.03;;;18.35;;
72404;SDS011;60395;52.020;113.548;2023-02-14T05:53:00;19.25;;;7.10;;
72404;SDS011;60395;52.020;113.548;2023-02-14T05:56:03;21.85;;;6.10;;
72404;SDS011;60395;52.020;113.548;2023-02-14T05:59:07;15.70;;;4.28;;
72404;SDS011;60395;52.020;113.548;2023-02-14T06:02:10;15.65;;;4.65;;
72404;SDS011;60395;52.020;113.548;2023-02-14T06:08:19;9.40;;;3.28;;
72404;SDS011;60395;52.020;113.548;2023-02-14T06:11:23;14.50;;;4.88;;
72404;SDS011;60395;52.020;113.548;2023-02-14T06:14:26;14.73;;;3.80;;
72404;SDS011;60395;52.020;113.548;2023-02-14T06:17:29;12.20;;;3.70;;
72404;SDS011;60395;52.020;113.548;2023-02-14T06:20:32;7.15;;;2.80;;
72404;SDS011;60395;52.020;113.548;2023-02-14T06:23:36;8.93;;;3.28;;
72404;SDS011;60395;52.020;113.548;2023-02-14T06:26:39;5.25;;;2.10;;
72404;SDS011;60395;52.020;113.548;2023-02-14T06:29:42;8.80;;;2.35;;
72404;SDS011;60395;52.020;113.548;2023-02-14T06:32:45;6.55;;;2.55;;
72404;SDS011;60395;52.020;113.548;2023-02-14T06:35:49;9.88;;;2.83;;
72404;SDS011;60395;52.020;113.548;2023-02-14T06:38:54;12.68;;;3.53;;
72404;SDS011;60395;52.020;113.548;2023-02-14T06:41:58;9.52;;;3.00;;
72404;SDS011;60395;52.020;113.548;2023-02-14T06:45:01;8.18;;;2.85;;
72404;SDS011;60395;52.020;113.548;2023-02-14T06:48:04;15.73;;;3.60;;
72404;SDS011;60395;52.020;113.548;2023-02-14T06:51:08;7.32;;;3.45;;
72404;SDS011;60395;52.020;113.548;2023-02-14T06:54:11;9.07;;;3.13;;
72404;SDS011;60395;52.020;113.548;2023-02-14T06:57:15;10.13;;;3.38;;
72404;SDS011;60395;52.020;113.548;2023-02-14T07:00:18;9.40;;;2.83;;
72404;SDS011;60395;52.020;113.548;2023-02-14T07:03:22;7.15;;;2.40;;
72404;SDS011;60395;52.020;113.548;2023-02-14T07:06:25;6.22;;;2.67;;
72404;SDS011;60395;52.020;113.548;2023-02-14T07:09:29;7.15;;;2.83;;
72404;SDS011;60395;52.020;113.548;2023-02-14T07:12:32;6.78;;;2.78;;
72404;SDS011;60395;52.020;113.548;2023-02-14T07:15:36;8.77;;;3.72;;
72404;SDS011;60395;52.020;113.548;2023-02-14T07:18:39;8.07;;;3.17;;
72404;SDS011;60395;52.020;113.548;2023-02-14T07:21:42;7.00;;;3.13;;
72404;SDS011;60395;52.020;113.548;2023-02-14T07:24:46;12.65;;;3.38;;
72404;SDS011;60395;52.020;113.548;2023-02-14T07:27:49;9.25;;;3.20;;
72404;SDS011;60395;52.020;113.548;2023-02-14T07:30:52;11.15;;;3.40;;
72404;SDS011;60395;52.020;113.548;2023-02-14T07:33:56;7.47;;;3.03;;
72404;SDS011;60395;52.020;113.548;2023-02-14T07:37:02;7.55;;;3.33;;
72404;SDS011;60395;52.020;113.548;2023-02-14T07:40:05;8.93;;;3.42;;
72404;SDS011;60395;52.020;113.548;2023-02-14T07:43:15;8.35;;;3.13;;
72404;SDS011;60395;52.020;113.548;2023-02-14T07:46:20;7.28;;;2.92;;
72404;SDS011;60395;52.020;113.548;2023-02-14T07:49:24;8.95;;;3.22;;
72404;SDS011;60395;52.020;113.548;2023-02-14T07:52:27;6.00;;;2.35;;
72404;SDS011;60395;52.020;113.548;2023-02-14T07:55:31;10.90;;;2.95;;
72404;SDS011;60395;52.020;113.548;2023-02-14T07:58:34;8.43;;;3.25;;
72404;SDS011;60395;52.020;113.548;2023-02-14T08:01:37;7.88;;;2.90;;
72404;SDS011;60395;52.020;113.548;2023-02-14T08:04:40;8.57;;;3.28;;
72404;SDS011;60395;52.020;113.548;2023-02-14T08:07:44;7.55;;;3.58;;
72404;SDS011;60395;52.020;113.548;2023-02-14T08:10:50;8.25;;;3.33;;
72404;SDS011;60395;52.020;113.548;2023-02-14T08:13:53;14.02;;;3.53;;
72404;SDS011;60395;52.020;113.548;2023-02-14T08:16:56;12.75;;;3.80;;
72404;SDS011;60395;52.020;113.548;2023-02-14T08:19:59;12.43;;;3.60;;
72404;SDS011;60395;52.020;113.548;2023-02-14T08:23:03;12.38;;;3.72;;
72404;SDS011;60395;52.020;113.548;2023-02-14T08:26:06;19.88;;;6.10;;
72404;SDS011;60395;52.020;113.548;2023-02-14T08:29:10;19.63;;;6.10;;
72404;SDS011;60395;52.020;113.548;2023-02-14T08:32:13;23.88;;;7.57;;
72404;SDS011;60395;52.020;113.548;2023-02-14T08:35:17;17.98;;;6.63;;
72404;SDS011;60395;52.020;113.548;2023-02-14T08:38:20;23.60;;;5.82;;
72404;SDS011;60395;52.020;113.548;2023-02-14T08:41:24;15.88;;;4.68;;
72404;SDS011;60395;52.020;113.548;2023-02-14T08:44:27;21.17;;;3.97;;
72404;SDS011;60395;52.020;113.548;2023-02-14T08:47:31;13.50;;;4.90;;
72404;SDS011;60395;52.020;113.548;2023-02-14T08:50:39;10.80;;;3.15;;
72404;SDS011;60395;52.020;113.548;2023-02-14T08:53:43;11.07;;;4.30;;
72404;SDS011;60395;52.020;113.548;2023-02-14T08:56:47;20.95;;;4.15;;
72404;SDS011;60395;52.020;113.548;2023-02-14T08:59:50;15.13;;;4.18;;
72404;SDS011;60395;52.020;113.548;2023-02-14T09:02:54;11.88;;;3.65;;
72404;SDS011;60395;52.020;113.548;2023-02-14T09:06:01;17.42;;;5.15;;
72404;SDS011;60395;52.020;113.548;2023-02-14T09:09:05;9.43;;;3.63;;
72404;SDS011;60395;52.020;113.548;2023-02-14T09:12:12;10.75;;;3.90;;
72404;SDS011;60395;52.020;113.548;2023-02-14T09:15:15;12.68;;;4.45;;
72404;SDS011;60395;52.020;113.548;2023-02-14T09:18:18;10.15;;;4.65;;
72404;SDS011;60395;52.020;113.548;2023-02-14T09:21:23;11.32;;;4.05;;
72404;SDS011;60395;52.020;113.548;2023-02-14T09:24:29;10.57;;;3.85;;
72404;SDS011;60395;52.020;113.548;2023-02-14T09:27:33;14.13;;;5.55;;
72404;SDS011;60395;52.020;113.548;2023-02-14T09:30:37;21.08;;;6.00;;
72404;SDS011;60395;52.020;113.548;2023-02-14T09:33:41;18.92;;;6.43;;
72404;SDS011;60395;52.020;113.548;2023-02-14T09:36:44;18.77;;;5.93;;
72404;SDS011;60395;52.020;113.548;2023-02-14T09:39:48;16.80;;;6.72;;
72404;SDS011;60395;52.020;113.548;2023-02-14T09:46:07;9.30;;;3.75;;
72404;SDS011;60395;52.020;113.548;2023-02-14T09:49:17;12.75;;;4.40;;
72404;SDS011;60395;52.020;113.548;2023-02-14T09:52:30;40.83;;;17.67;;
72404;SDS011;60395;52.020;113.548;2023-02-14T09:55:37;11.65;;;3.35;;
72404;SDS011;60395;52.020;113.548;2023-02-14T10:10:01;10.43;;;2.83;;
72404;SDS011;60395;52.020;113.548;2023-02-14T10:16:58;4.18;;;1.98;;
72404;SDS011;60395;52.020;113.548;2023-02-14T10:20:04;11.05;;;3.47;;
72404;SDS011;60395;52.020;113.548;2023-02-14T10:23:39;6.03;;;2.25;;
72404;SDS011;60395;52.020;113.548;2023-02-14T10:26:47;3.72;;;1.65;;
72404;SDS011;60395;52.020;113.548;2023-02-14T10:29:51;6.43;;;1.90;;
72404;SDS011;60395;52.020;113.548;2023-02-14T10:32:58;5.28;;;2.00;;
72404;SDS011;60395;52.020;113.548;2023-02-14T10:36:20;5.15;;;2.03;;
72404;SDS011;60395;52.020;113.548;2023-02-14T10:42:49;16.27;;;4.53;;
72404;SDS011;60395;52.020;113.548;2023-02-14T10:46:45;10.05;;;2.90;;
72404;SDS011;60395;52.020;113.548;2023-02-14T10:49:44;6.10;;;2.50;;
72404;SDS011;60395;52.020;113.548;2023-02-14T10:52:54;4.05;;;1.70;;
72404;SDS011;60395;52.020;113.548;2023-02-14T10:59:30;4.15;;;2.30;;
72404;SDS011;60395;52.020;113.548;2023-02-14T11:02:49;4.75;;;1.98;;
72404;SDS011;60395;52.020;113.548;2023-02-14T11:05:55;6.20;;;1.88;;
72404;SDS011;60395;52.020;113.548;2023-02-14T11:08:58;4.72;;;1.90;;
72404;SDS011;60395;52.020;113.548;2023-02-14T11:12:02;5.40;;;1.88;;
72404;SDS011;60395;52.020;113.548;2023-02-14T11:18:24;8.38;;;2.85;;
72404;SDS011;60395;52.020;113.548;2023-02-14T11:21:37;8.10;;;3.13;;
72404;SDS011;60395;52.020;113.548;2023-02-14T11:24:41;6.68;;;3.10;;
72404;SDS011;60395;52.020;113.548;2023-02-14T11:27:47;6.40;;;2.47;;
72404;SDS011;60395;52.020;113.548;2023-02-14T11:30:53;7.82;;;2.85;;
72404;SDS011;60395;52.020;113.548;2023-02-14T11:33:58;7.55;;;3.05;;
72404;SDS011;60395;52.020;113.548;2023-02-14T11:38:18;11.02;;;3.65;;
72404;SDS011;60395;52.020;113.548;2023-02-14T11:40:44;8.50;;;2.75;;
72404;SDS011;60395;52.020;113.548;2023-02-14T11:44:08;7.55;;;3.22;;
72404;SDS011;60395;52.020;113.548;2023-02-14T11:47:25;8.35;;;2.88;;
72404;SDS011;60395;52.020;113.548;2023-02-14T11:50:34;4.93;;;1.83;;
72404;SDS011;60395;52.020;113.548;2023-02-14T11:53:52;3.40;;;1.63;;
72404;SDS011;60395;52.020;113.548;2023-02-14T11:57:31;5.80;;;2.05;;
72404;SDS011;60395;52.020;113.548;2023-02-14T12:00:34;3.22;;;1.70;;
72404;SDS011;60395;52.020;113.548;2023-02-14T12:03:41;4.30;;;1.60;;
72404;SDS011;60395;52.020;113.548;2023-02-14T12:06:47;2.53;;;1.20;;
72404;SDS011;60395;52.020;113.548;2023-02-14T12:16:18;4.43;;;1.90;;
72404;SDS011;60395;52.020;113.548;2023-02-14T12:19:32;9.18;;;3.65;;
72404;SDS011;60395;52.020;113.548;2023-02-14T12:22:58;5.28;;;2.25;;
72404;SDS011;60395;52.020;113.548;2023-02-14T12:26:12;6.50;;;2.50;;
72404;SDS011;60395;52.020;113.548;2023-02-14T12:32:50;6.05;;;1.80;;
72404;SDS011;60395;52.020;113.548;2023-02-14T12:42:46;4.25;;;1.67;;
72404;SDS011;60395;52.020;113.548;2023-02-14T12:52:42;2.72;;;1.15;;
72404;SDS011;60395;52.020;113.548;2023-02-14T13:02:36;3.65;;;1.88;;
72404;SDS011;60395;52.020;113.548;2023-02-14T13:16:16;8.93;;;1.90;;
72404;SDS011;60395;52.020;113.548;2023-02-14T13:19:37;4.47;;;1.73;;
72404;SDS011;60395;52.020;113.548;2023-02-14T13:22:54;4.82;;;1.67;;
72404;SDS011;60395;52.020;113.548;2023-02-14T13:29:31;4.60;;;1.92;;
72404;SDS011;60395;52.020;113.548;2023-02-14T13:32:42;6.32;;;2.30;;
72404;SDS011;60395;52.020;113.548;2023-02-14T13:35:48;7.82;;;2.33;;
72404;SDS011;60395;52.020;113.548;2023-02-14T13:38:54;5.95;;;2.40;;
72404;SDS011;60395;52.020;113.548;2023-02-14T13:41:59;8.80;;;2.40;;
72404;SDS011;60395;52.020;113.548;2023-02-14T13:45:03;7.22;;;2.42;;
72404;SDS011;60395;52.020;113.548;2023-02-14T13:51:21;3.85;;;1.77;;
72404;SDS011;60395;52.020;113.548;2023-02-14T13:54:45;6.00;;;2.22;;
72404;SDS011;60395;52.020;113.548;2023-02-14T13:58:35;5.95;;;2.45;;
72404;SDS011;60395;52.020;113.548;2023-02-14T14:07:33;8.52;;;2.83;;
72404;SDS011;60395;52.020;113.548;2023-02-14T14:10:43;7.13;;;2.88;;
72404;SDS011;60395;52.020;113.548;2023-02-14T14:17:21;4.32;;;1.95;;
72404;SDS011;60395;52.020;113.548;2023-02-14T14:23:32;5.65;;;2.47;;
72404;SDS011;60395;52.020;113.548;2023-02-14T14:26:39;6.78;;;2.65;;
72404;SDS011;60395;52.020;113.548;2023-02-14T14:32:52;4.43;;;2.10;;
72404;SDS011;60395;52.020;113.548;2023-02-14T14:36:00;4.20;;;1.80;;
72404;SDS011;60395;52.020;113.548;2023-02-14T14:39:09;4.20;;;1.40;;
72404;SDS011;60395;52.020;113.548;2023-02-14T14:42:13;3.63;;;1.73;;
72404;SDS011;60395;52.020;113.548;2023-02-14T14:45:24;4.85;;;2.00;;
72404;SDS011;60395;52.020;113.548;2023-02-14T14:48:30;6.80;;;2.03;;
72404;SDS011;60395;52.020;113.548;2023-02-14T14:51:42;1.95;;;1.02;;
72404;SDS011;60395;52.020;113.548;2023-02-14T14:54:45;4.35;;;1.95;;
72404;SDS011;60395;52.020;113.548;2023-02-14T14:57:59;3.10;;;1.33;;
72404;SDS011;60395;52.020;113.548;2023-02-14T15:01:08;6.10;;;2.20;;
72404;SDS011;60395;52.020;113.548;2023-02-14T15:10:36;4.18;;;1.35;;
72404;SDS011;60395;52.020;113.548;2023-02-14T15:13:41;3.88;;;1.52;;
72404;SDS011;60395;52.020;113.548;2023-02-14T15:17:05;3.20;;;1.55;;
72404;SDS011;60395;52.020;113.548;2023-02-14T15:20:19;3.10;;;1.17;;
72404;SDS011;60395;52.020;113.548;2023-02-14T15:23:24;4.30;;;1.75;;
72404;SDS011;60395;52.020;113.548;2023-02-14T15:26:29;4.70;;;1.70;;
72404;SDS011;60395;52.020;113.548;2023-02-14T15:29:34;5.78;;;1.58;;
72404;SDS011;60395;52.020;113.548;2023-02-14T15:32:37;5.53;;;1.52;;
72404;SDS011;60395;52.020;113.548;2023-02-14T15:35:40;5.70;;;1.98;;
72404;SDS011;60395;52.020;113.548;2023-02-14T15:38:45;5.05;;;1.95;;
72404;SDS011;60395;52.020;113.548;2023-02-14T15:41:49;4.10;;;1.80;;
72404;SDS011;60395;52.020;113.548;2023-02-14T15:48:27;6.70;;;2.30;;
72404;SDS011;60395;52.020;113.548;2023-02-14T15:51:34;3.15;;;1.55;;
72404;SDS011;60395;52.020;113.548;2023-02-14T15:54:43;4.22;;;1.42;;
72404;SDS011;60395;52.020;113.548;2023-02-14T15:57:53;4.50;;;1.40;;
72404;SDS011;60395;52.020;113.548;2023-02-14T16:01:00;5.68;;;2.15;;
72404;SDS011;60395;52.020;113.548;2023-02-14T16:10:27;8.93;;;3.13;;
72404;SDS011;60395;52.020;113.548;2023-02-14T16:13:37;21.92;;;7.70;;
72404;SDS011;60395;52.020;113.548;2023-02-14T16:17:05;23.90;;;7.15;;
72404;SDS011;60395;52.020;113.548;2023-02-14T16:23:45;96.43;;;30.15;;
72404;SDS011;60395;52.020;113.548;2023-02-14T16:27:09;36.17;;;13.50;;
72404;SDS011;60395;52.020;113.548;2023-02-14T16:30:15;85.22;;;27.13;;
72404;SDS011;60395;52.020;113.548;2023-02-14T16:33:24;115.72;;;34.42;;
72404;SDS011;60395;52.020;113.548;2023-02-14T16:36:29;108.63;;;33.50;;
72404;SDS011;60395;52.020;113.548;2023-02-14T16:39:34;90.28;;;29.08;;
72404;SDS011;60395;52.020;113.548;2023-02-14T16:42:40;89.90;;;27.08;;
72404;SDS011;60395;52.020;113.548;2023-02-14T16:45:44;90.45;;;27.45;;
72404;SDS011;60395;52.020;113.548;2023-02-14T16:48:48;106.78;;;30.88;;
72404;SDS011;60395;52.020;113.548;2023-02-14T16:51:54;94.15;;;30.35;;
72404;SDS011;60395;52.020;113.548;2023-02-14T16:54:59;112.10;;;35.55;;
72404;SDS011;60395;52.020;113.548;2023-02-14T16:58:02;114.47;;;34.83;;
72404;SDS011;60395;52.020;113.548;2023-02-14T17:01:05;96.40;;;31.85;;
72404;SDS011;60395;52.020;113.548;2023-02-14T17:04:09;142.95;;;40.13;;
72404;SDS011;60395;52.020;113.548;2023-02-14T17:07:12;124.15;;;36.80;;
72404;SDS011;60395;52.020;113.548;2023-02-14T17:10:17;104.20;;;30.98;;
72404;SDS011;60395;52.020;113.548;2023-02-14T17:13:22;99.28;;;30.83;;
72404;SDS011;60395;52.020;113.548;2023-02-14T17:16:28;67.15;;;22.88;;
72404;SDS011;60395;52.020;113.548;2023-02-14T17:22:36;98.00;;;28.88;;
72404;SDS011;60395;52.020;113.548;2023-02-14T17:25:39;70.07;;;22.03;;
72404;SDS011;60395;52.020;113.548;2023-02-14T17:28:42;69.60;;;19.90;;
72404;SDS011;60395;52.020;113.548;2023-02-14T17:31:47;73.18;;;24.63;;
72404;SDS011;60395;52.020;113.548;2023-02-14T17:34:51;91.85;;;28.55;;
72404;SDS011;60395;52.020;113.548;2023-02-14T17:37:55;91.63;;;30.88;;
72404;SDS011;60395;52.020;113.548;2023-02-14T17:40:58;82.00;;;25.00;;
72404;SDS011;60395;52.020;113.548;2023-02-14T17:44:02;93.88;;;28.77;;
72404;SDS011;60395;52.020;113.548;2023-02-14T17:47:07;87.57;;;27.88;;
72404;SDS011;60395;52.020;113.548;2023-02-14T17:50:10;92.35;;;27.30;;
72404;SDS011;60395;52.020;113.548;2023-02-14T17:56:20;67.05;;;21.20;;
72404;SDS011;60395;52.020;113.548;2023-02-14T17:59:25;61.92;;;21.60;;
72404;SDS011;60395;52.020;113.548;2023-02-14T18:02:28;71.65;;;24.23;;
72404;SDS011;60395;52.020;113.548;2023-02-14T18:05:34;91.00;;;24.30;;
72404;SDS011;60395;52.020;113.548;2023-02-14T18:08:39;68.95;;;25.00;;
72404;SDS011;60395;52.020;113.548;2023-02-14T18:11:47;69.35;;;22.13;;
72404;SDS011;60395;52.020;113.548;2023-02-14T18:14:51;58.67;;;20.05;;
72404;SDS011;60395;52.020;113.548;2023-02-14T18:17:56;68.50;;;21.20;;
72404;SDS011;60395;52.020;113.548;2023-02-14T18:21:00;73.57;;;24.25;;
72404;SDS011;60395;52.020;113.548;2023-02-14T18:24:06;67.03;;;22.73;;
72404;SDS011;60395;52.020;113.548;2023-02-14T18:27:10;81.45;;;24.85;;
72404;SDS011;60395;52.020;113.548;2023-02-14T18:30:17;90.93;;;27.35;;
72404;SDS011;60395;52.020;113.548;2023-02-14T18:33:20;65.55;;;18.45;;
72404;SDS011;60395;52.020;113.548;2023-02-14T18:36:26;45.00;;;12.45;;
72404;SDS011;60395;52.020;113.548;2023-02-14T18:39:30;39.78;;;9.85;;
72404;SDS011;60395;52.020;113.548;2023-02-14T18:42:34;24.40;;;9.10;;
72404;SDS011;60395;52.020;113.548;2023-02-14T18:45:37;29.65;;;9.27;;
72404;SDS011;60395;52.020;113.548;2023-02-14T18:48:41;30.25;;;9.68;;
72404;SDS011;60395;52.020;113.548;2023-02-14T18:51:44;36.27;;;12.47;;
72404;SDS011;60395;52.020;113.548;2023-02-14T18:54:50;36.60;;;11.02;;
72404;SDS011;60395;52.020;113.548;2023-02-14T18:57:53;27.23;;;10.33;;
72404;SDS011;60395;52.020;113.548;2023-02-14T19:00:57;45.63;;;13.50;;
72404;SDS011;60395;52.020;113.548;2023-02-14T19:04:00;53.45;;;16.30;;
72404;SDS011;60395;52.020;113.548;2023-02-14T19:07:04;54.22;;;15.52;;
72404;SDS011;60395;52.020;113.548;2023-02-14T19:10:08;38.73;;;14.67;;
72404;SDS011;60395;52.020;113.548;2023-02-14T19:13:12;43.10;;;15.20;;
72404;SDS011;60395;52.020;113.548;2023-02-14T19:16:16;51.80;;;17.55;;
72404;SDS011;60395;52.020;113.548;2023-02-14T19:19:21;26.40;;;9.48;;
72404;SDS011;60395;52.020;113.548;2023-02-14T19:22:24;35.63;;;12.45;;
72404;SDS011;60395;52.020;113.548;2023-02-14T19:25:28;67.45;;;17.75;;
72404;SDS011;60395;52.020;113.548;2023-02-14T19:28:34;41.08;;;14.35;;
72404;SDS011;60395;52.020;113.548;2023-02-14T19:31:38;31.45;;;11.48;;
72404;SDS011;60395;52.020;113.548;2023-02-14T19:34:43;45.55;;;14.90;;
72404;SDS011;60395;52.020;113.548;2023-02-14T19:37:50;29.48;;;9.75;;
72404;SDS011;60395;52.020;113.548;2023-02-14T19:40:54;16.15;;;4.75;;
72404;SDS011;60395;52.020;113.548;2023-02-14T19:43:58;26.42;;;6.68;;
72404;SDS011;60395;52.020;113.548;2023-02-14T19:47:03;24.25;;;5.45;;
72404;SDS011;60395;52.020;113.548;2023-02-14T19:50:26;8.55;;;3.63;;
72404;SDS011;60395;52.020;113.548;2023-02-14T19:53:31;4.57;;;2.03;;
72404;SDS011;60395;52.020;113.548;2023-02-14T19:56:39;7.07;;;2.67;;
72404;SDS011;60395;52.020;113.548;2023-02-14T19:59:44;9.63;;;3.58;;
72404;SDS011;60395;52.020;113.548;2023-02-14T20:02:47;18.67;;;4.90;;
72404;SDS011;60395;52.020;113.548;2023-02-14T20:05:50;17.02;;;4.55;;
72404;SDS011;60395;52.020;113.548;2023-02-14T20:08:54;6.15;;;2.13;;
72404;SDS011;60395;52.020;113.548;2023-02-14T20:11:57;9.77;;;3.33;;
72404;SDS011;60395;52.020;113.548;2023-02-14T20:15:02;18.10;;;5.78;;
72404;SDS011;60395;52.020;113.548;2023-02-14T20:18:07;7.07;;;3.78;;
72404;SDS011;60395;52.020;113.548;2023-02-14T20:21:14;9.23;;;3.37;;
72404;SDS011;60395;52.020;113.548;2023-02-14T20:24:23;7.63;;;3.45;;
72404;SDS011;60395;52.020;113.548;2023-02-14T20:27:33;5.05;;;2.90;;
72404;SDS011;60395;52.020;113.548;2023-02-14T20:30:38;6.95;;;3.67;;
72404;SDS011;60395;52.020;113.548;2023-02-14T20:33:41;11.40;;;3.55;;
72404;SDS011;60395;52.020;113.548;2023-02-14T20:36:45;12.30;;;5.40;;
72404;SDS011;60395;52.020;113.548;2023-02-14T20:39:54;8.68;;;3.45;;
72404;SDS011;60395;52.020;113.548;2023-02-14T20:42:57;14.93;;;3.90;;
72404;SDS011;60395;52.020;113.548;2023-02-14T20:46:01;9.95;;;3.75;;
72404;SDS011;60395;52.020;113.548;2023-02-14T20:49:06;8.27;;;4.63;;
72404;SDS011;60395;52.020;113.548;2023-02-14T20:52:12;21.05;;;7.80;;
72404;SDS011;60395;52.020;113.548;2023-02-14T20:55:16;11.27;;;5.22;;